createdAt,value
2023-01-18T00:05:02.152Z,-0.50
2023-01-18T00:07:28.862Z,-0.30
2023-01-18T00:09:56.683Z,-1.40
2023-01-18T00:12:23.283Z,-0.60
2023-01-18T00:14:49.825Z,0.00
2023-01-18T00:17:16.380Z,-0.20
2023-01-18T00:19:42.945Z,0.00
2023-01-18T00:22:09.527Z,0.00
2023-01-18T00:24:36.034Z,0.20
2023-01-18T00:27:02.590Z,0.60
2023-01-18T00:29:30.180Z,0.10
2023-01-18T00:31:56.776Z,0.10
2023-01-18T00:34:23.316Z,0.20
2023-01-18T00:36:49.875Z,0.10
2023-01-18T00:39:16.572Z,0.10
2023-01-18T00:42:03.130Z,0.10
2023-01-18T00:56:45.834Z,0.30
2023-01-18T00:59:12.421Z,0.20
2023-01-18T01:01:39.074Z,0.20
2023-01-18T01:04:24.632Z,0.10
2023-01-18T01:06:51.763Z,0.40
2023-01-18T01:09:20.669Z,0.30
2023-01-18T01:12:06.529Z,0.00
2023-01-18T01:14:53.856Z,0.10
2023-01-18T01:17:39.033Z,0.40
2023-01-18T01:20:24.707Z,0.40
2023-01-18T01:23:09.970Z,0.20
2023-01-18T01:25:55.682Z,0.10
2023-01-18T01:30:49.373Z,0.10
2023-01-18T01:33:17.140Z,0.00
2023-01-18T01:35:44.375Z,-0.10
2023-01-18T01:38:10.948Z,-0.20
2023-01-18T01:43:04.524Z,-0.20
2023-01-18T01:45:31.419Z,-0.20
2023-01-18T01:47:58.404Z,-0.30
2023-01-18T01:50:28.046Z,-0.20
2023-01-18T01:52:55.599Z,-0.30
2023-01-18T01:55:24.415Z,-0.30
2023-01-18T01:57:58.694Z,-0.30
2023-01-18T02:00:25.456Z,-0.30
2023-01-18T02:03:04.074Z,-0.20
2023-01-18T02:05:31.805Z,-0.30
2023-01-18T02:07:59.434Z,-0.30
2023-01-18T02:10:26.369Z,-0.20
2023-01-18T02:12:54.738Z,-0.40
2023-01-18T02:15:58.146Z,-0.30
2023-01-18T02:18:26.634Z,-0.40
2023-01-18T02:24:31.759Z,-0.40
2023-01-18T02:27:04.627Z,-0.50
2023-01-18T02:29:50.170Z,-0.30
2023-01-18T02:32:30.214Z,-0.30
2023-01-18T02:34:59.858Z,-0.30
2023-01-18T02:37:45.151Z,-0.40
2023-01-18T02:40:19.179Z,-0.40
2023-01-18T02:43:04.661Z,-0.50
2023-01-18T02:45:49.715Z,-0.60
2023-01-18T02:48:16.820Z,-0.50
2023-01-18T02:50:43.903Z,-0.20
2023-01-18T02:53:12.728Z,-0.20
2023-01-18T02:55:42.294Z,-0.30
2023-01-18T02:58:27.827Z,-0.30
2023-01-18T03:01:01.493Z,-0.20
2023-01-18T03:03:28.284Z,-0.20
2023-01-18T03:06:01.827Z,0.10
2023-01-18T03:08:31.427Z,-0.30
2023-01-18T03:11:02.802Z,-0.20
2023-01-18T03:13:47.624Z,-0.20
2023-01-18T03:16:25.578Z,-0.20
2023-01-18T03:19:01.924Z,-0.20
2023-01-18T03:21:34.465Z,-0.20
2023-01-18T03:24:02.005Z,-0.20
2023-01-18T03:26:28.911Z,0.20
2023-01-18T03:29:16.403Z,-0.20
2023-01-18T03:32:20.412Z,0.10
2023-01-18T03:34:52.823Z,-0.30
2023-01-18T03:37:30.815Z,-0.70
2023-01-18T03:39:59.466Z,0.10
2023-01-18T03:42:27.955Z,-0.10
2023-01-18T03:45:03.745Z,0.20
2023-01-18T03:47:30.525Z,-0.20
2023-01-18T03:49:58.039Z,0.10
2023-01-18T03:52:25.815Z,-0.10
2023-01-18T03:54:59.453Z,-0.60
2023-01-18T03:57:52.351Z,-0.20
2023-01-18T04:00:19.261Z,-0.30
2023-01-18T04:02:47.301Z,-0.20
2023-01-18T04:05:14.263Z,-0.40
2023-01-18T04:07:41.090Z,-0.10
2023-01-18T04:10:07.910Z,-0.20
2023-01-18T04:12:34.972Z,0.10
2023-01-18T04:15:01.800Z,0.10
2023-01-18T04:17:28.464Z,-0.10
2023-01-18T04:19:55.010Z,0.00
2023-01-18T04:22:21.632Z,0.00
2023-01-18T04:24:48.201Z,0.00
2023-01-18T04:27:14.767Z,-0.20
2023-01-18T04:29:41.337Z,-0.10
2023-01-18T04:32:07.937Z,-0.20
2023-01-18T04:34:34.636Z,-0.20
2023-01-18T06:05:26.504Z,-0.40
2023-01-18T06:07:53.194Z,-0.90
2023-01-18T06:10:20.010Z,-0.30
2023-01-18T06:12:46.685Z,-0.10
2023-01-18T06:15:13.454Z,-0.20
2023-01-18T06:17:40.074Z,-0.10
2023-01-18T06:20:07.015Z,-0.70
2023-01-18T06:22:33.547Z,-0.10
2023-01-18T06:25:00.139Z,-0.20
2023-01-18T06:27:26.730Z,-0.10
2023-01-18T06:32:20.334Z,-0.10
2023-01-18T06:34:46.979Z,-0.50
2023-01-18T06:37:14.748Z,0.10
2023-01-18T06:42:08.299Z,-0.40
2023-01-18T06:47:01.807Z,-0.20
2023-01-18T06:49:28.328Z,-0.60
2023-01-18T06:54:21.932Z,-0.50
2023-01-18T06:56:48.580Z,0.00
2023-01-18T06:59:15.506Z,-0.60
2023-01-18T07:04:09.296Z,-0.30
2023-01-18T07:06:36.654Z,-0.40
2023-01-18T07:13:57.126Z,-0.30
2023-01-18T07:18:50.779Z,-0.20
2023-01-18T07:23:44.483Z,-0.80
2023-01-18T07:26:12.201Z,-0.20
2023-01-18T07:28:38.799Z,-0.20
2023-01-18T09:41:29.823Z,1.40
2023-01-18T10:38:03.127Z,0.50
2023-01-18T10:40:29.756Z,0.80
2023-01-18T10:42:58.147Z,0.70
2023-01-18T10:45:26.804Z,0.50
2023-01-18T10:47:54.205Z,0.70
2023-01-18T10:50:22.960Z,0.70
2023-01-18T10:52:52.592Z,0.80
2023-01-18T10:55:19.677Z,0.80
2023-01-18T10:57:51.927Z,0.90
2023-01-18T11:00:21.267Z,0.90
2023-01-18T11:02:49.256Z,0.80
2023-01-18T11:05:20.286Z,0.90
2023-01-18T11:07:47.053Z,1.00
2023-01-18T11:10:23.203Z,1.10
2023-01-18T11:12:52.164Z,1.00
2023-01-18T11:15:19.094Z,1.00
2023-01-18T11:17:46.225Z,1.10
2023-01-18T11:20:17.310Z,1.10
2023-01-18T11:22:53.757Z,1.30
2023-01-18T11:25:20.471Z,1.40
2023-01-18T11:27:47.818Z,1.30
2023-01-18T11:30:21.380Z,1.10
2023-01-18T11:32:48.388Z,1.10
2023-01-18T11:35:21.934Z,1.10
2023-01-18T11:37:48.803Z,1.30
2023-01-18T11:40:18.537Z,1.20
2023-01-18T11:42:45.523Z,1.30
2023-01-18T11:47:57.711Z,1.90
2023-01-18T11:57:45.729Z,2.20
2023-01-18T14:00:48.872Z,2.10
2023-01-18T14:03:20.470Z,1.70
2023-01-18T14:05:48.721Z,2.00
2023-01-18T14:13:14.213Z,0.50
2023-01-18T15:00:02.699Z,1.40
2023-01-18T15:02:37.141Z,1.50
2023-01-18T15:05:14.501Z,1.50
2023-01-18T15:07:41.319Z,1.50
2023-01-18T15:34:40.505Z,0.80
2023-01-18T16:04:20.315Z,0.20
2023-01-18T16:06:47.401Z,0.20
2023-01-18T16:09:15.849Z,0.20
2023-01-18T16:11:52.105Z,0.00
2023-01-18T16:14:32.350Z,0.30
2023-01-18T16:17:03.640Z,0.10
2023-01-18T16:19:34.836Z,0.20
2023-01-18T16:22:02.489Z,0.20
2023-01-18T16:24:32.274Z,0.30
2023-01-18T16:27:00.329Z,-0.20
2023-01-18T16:29:27.049Z,-0.40
2023-01-18T16:32:13.557Z,-0.20
2023-01-18T16:34:40.097Z,-0.20
2023-01-18T16:37:07.745Z,0.00
2023-01-18T16:39:38.425Z,-0.30
2023-01-18T16:42:04.989Z,-0.10
2023-01-18T16:44:32.037Z,-0.30
2023-01-18T16:46:58.864Z,-0.30
2023-01-18T16:49:28.824Z,-0.70
2023-01-18T16:51:55.938Z,0.10
2023-01-18T16:54:22.523Z,0.00
2023-01-18T16:56:50.070Z,-0.20
2023-01-18T16:59:18.168Z,-0.20
2023-01-18T17:01:45.467Z,0.00
2023-01-18T17:04:12.699Z,-0.40
2023-01-18T17:06:40.154Z,-0.20
2023-01-18T17:09:16.774Z,-0.10
2023-01-18T17:11:43.396Z,-0.20
2023-01-18T17:14:09.995Z,-0.70
2023-01-18T17:16:36.682Z,-0.30
2023-01-18T17:19:03.376Z,-0.20
2023-01-18T17:21:29.947Z,-0.20
2023-01-18T17:23:56.586Z,-0.30
2023-01-18T17:26:23.137Z,-0.50
2023-01-18T17:28:49.915Z,-0.30
2023-01-18T17:31:16.565Z,-0.50
2023-01-18T17:33:43.746Z,-0.30
2023-01-18T17:36:10.389Z,-0.10
2023-01-18T17:38:37.229Z,-0.30
2023-01-18T17:41:04.000Z,-0.20
2023-01-18T17:43:34.362Z,-0.60
2023-01-18T17:46:05.196Z,0.20
2023-01-18T17:48:31.980Z,-0.20
2023-01-18T17:50:58.772Z,-0.40
2023-01-18T17:53:26.052Z,-0.60
2023-01-18T17:58:19.937Z,-0.30
2023-01-18T18:00:46.650Z,0.10
2023-01-18T18:08:07.543Z,-0.50
2023-01-18T18:10:34.133Z,0.00
2023-01-18T18:13:01.159Z,-0.60
2023-01-18T18:15:28.097Z,-0.80
2023-01-18T18:17:54.653Z,-0.70
2023-01-18T18:20:23.044Z,-0.70
2023-01-18T18:22:49.860Z,-0.80
2023-01-18T18:25:16.539Z,-0.80
2023-01-18T18:30:14.059Z,-0.40
2023-01-18T18:32:40.625Z,-0.40
2023-01-18T18:35:23.208Z,-0.60
2023-01-18T18:37:51.102Z,-0.50
2023-01-18T18:40:17.948Z,-0.80
2023-01-18T18:42:52.784Z,-0.50
2023-01-18T18:45:27.719Z,-1.00
2023-01-18T18:50:22.155Z,-0.60
2023-01-18T18:52:48.796Z,-0.90
2023-01-18T18:55:15.452Z,-1.00
2023-01-18T18:57:42.057Z,0.70
2023-01-18T19:00:09.179Z,-0.60
2023-01-18T19:02:35.870Z,-0.60
2023-01-18T19:05:02.524Z,-1.00
2023-01-18T19:07:29.200Z,-0.70
2023-01-18T19:09:55.864Z,-1.00
2023-01-18T19:12:22.637Z,-0.80
2023-01-18T19:14:49.418Z,-0.90
2023-01-18T19:17:29.063Z,-1.10
2023-01-18T19:19:56.874Z,-0.70
2023-01-18T19:24:50.600Z,-0.80
2023-01-18T19:27:17.298Z,-0.90
2023-01-18T19:37:05.455Z,-1.30
2023-01-18T19:39:34.820Z,-1.50
2023-01-18T20:11:47.627Z,-2.20
2023-01-18T20:14:14.550Z,-2.30
2023-01-18T20:16:41.792Z,-2.50
2023-01-18T20:19:11.885Z,-2.60
2023-01-18T20:21:38.529Z,-2.80
2023-01-18T20:24:05.292Z,-2.80
2023-01-18T20:26:36.958Z,-2.90
2023-01-18T20:29:06.933Z,-2.90
2023-01-18T20:31:38.002Z,-3.10
2023-01-18T20:34:05.163Z,-3.20
2023-01-18T20:36:32.279Z,-3.20
2023-01-18T20:38:58.933Z,-3.30
2023-01-18T20:41:25.781Z,-3.40
2023-01-18T20:43:52.633Z,-3.40
2023-01-18T20:46:19.347Z,-3.50
2023-01-18T20:48:46.060Z,-3.70
2023-01-18T20:51:13.015Z,-3.90
2023-01-18T20:53:39.719Z,-3.90
2023-01-18T20:56:23.399Z,-4.00
2023-01-18T20:58:54.785Z,-3.80
2023-01-18T21:01:21.634Z,-4.00
2023-01-18T21:03:55.157Z,-4.00
2023-01-18T21:06:21.881Z,-3.90
2023-01-18T21:08:51.515Z,-4.10
2023-01-18T21:11:18.159Z,-4.30
2023-01-18T21:13:44.824Z,-4.20
2023-01-18T21:16:11.497Z,-3.90
2023-01-18T21:18:39.367Z,-4.30
2023-01-18T21:28:33.094Z,-4.30
2023-01-18T21:30:59.682Z,-4.40
2023-01-18T21:35:54.931Z,-4.70
2023-01-18T21:38:23.172Z,-4.70
2023-01-18T21:40:49.936Z,-4.80
2023-01-18T21:43:36.599Z,-4.50
2023-01-18T21:46:04.121Z,-5.00
2023-01-18T21:48:31.547Z,-4.90
2023-01-18T21:51:23.277Z,-4.60
2023-01-18T21:54:08.950Z,-5.00
2023-01-18T21:56:38.435Z,-4.60
2023-01-18T21:59:05.007Z,-5.00
2023-01-18T22:01:37.745Z,-4.80
2023-01-18T22:04:27.739Z,-4.70
2023-01-18T22:06:54.382Z,-5.00
2023-01-18T22:09:20.988Z,-4.80
2023-01-18T22:11:47.737Z,-5.60
2023-01-18T22:28:56.635Z,-6.20
2023-01-18T22:31:23.447Z,-6.20
2023-01-18T22:33:50.001Z,-6.20
2023-01-18T22:36:16.642Z,-6.20
2023-01-18T22:38:43.852Z,-6.30
2023-01-18T22:41:11.839Z,-6.50
2023-01-18T22:43:39.145Z,-6.40
2023-01-18T22:46:07.092Z,-6.40
2023-01-18T22:48:34.678Z,-6.30
2023-01-18T22:51:01.690Z,-6.20
2023-01-18T22:53:30.302Z,-6.20
2023-01-18T22:56:07.673Z,-6.30
2023-01-18T22:58:34.977Z,-6.30
2023-01-18T23:01:01.898Z,-6.30
2023-01-18T23:03:29.751Z,-6.30
2023-01-18T23:05:57.518Z,-6.40
2023-01-18T23:08:24.944Z,-6.40
2023-01-18T23:13:18.471Z,-6.80
2023-01-18T23:16:03.990Z,-7.30
